createdAt,value
2019-05-21T00:00:53.721Z,10.17
2019-05-21T00:03:23.301Z,9.73
2019-05-21T00:05:54.879Z,10.93
2019-05-21T00:08:24.373Z,10.00
2019-05-21T00:10:54.156Z,10.17
2019-05-21T00:13:23.433Z,10.83
2019-05-21T00:15:53.012Z,10.63
2019-05-21T00:18:22.312Z,10.90
2019-05-21T00:20:52.129Z,11.03
2019-05-21T00:23:21.615Z,13.07
2019-05-21T00:25:50.895Z,12.30
2019-05-21T00:28:42.360Z,13.07
2019-05-21T00:31:47.503Z,14.47
2019-05-21T00:34:53.209Z,15.07
2019-05-21T00:37:58.447Z,17.07
2019-05-21T00:41:04.001Z,17.33
2019-05-21T00:43:55.209Z,14.37
2019-05-21T00:46:24.734Z,21.23
2019-05-21T00:48:54.057Z,17.10
2019-05-21T00:51:23.370Z,19.60
2019-05-21T00:53:53.141Z,18.80
2019-05-21T00:56:22.436Z,18.53
2019-05-21T00:58:51.803Z,19.70
2019-05-21T01:01:21.347Z,16.70
2019-05-21T01:04:28.401Z,22.47
2019-05-21T01:06:57.926Z,19.10
2019-05-21T01:09:27.256Z,16.27
2019-05-21T01:11:56.524Z,16.13
2019-05-21T01:14:25.918Z,17.67
2019-05-21T01:16:55.260Z,15.30
2019-05-21T01:19:24.448Z,15.17
2019-05-21T01:21:54.045Z,16.20
2019-05-21T01:24:23.393Z,16.17
2019-05-21T01:26:52.730Z,15.53
2019-05-21T01:29:22.252Z,16.57
2019-05-21T01:31:51.513Z,17.03
2019-05-21T01:34:20.738Z,16.13
2019-05-21T01:36:50.357Z,14.90
2019-05-21T01:39:19.819Z,17.13
2019-05-21T01:41:49.042Z,19.07
2019-05-21T01:44:18.556Z,16.17
2019-05-21T01:46:47.820Z,13.97
2019-05-21T01:49:17.072Z,16.70
2019-05-21T01:51:46.571Z,17.80
2019-05-21T01:54:15.818Z,14.53
2019-05-21T01:56:45.079Z,16.27
2019-05-21T01:59:14.491Z,16.83
2019-05-21T02:01:43.740Z,15.53
2019-05-21T02:04:12.982Z,14.90
2019-05-21T02:06:42.459Z,12.27
2019-05-21T02:09:11.687Z,16.60
2019-05-21T02:11:40.942Z,14.23
2019-05-21T02:14:10.303Z,13.47
2019-05-21T02:16:39.559Z,13.87
2019-05-21T02:19:08.832Z,15.57
2019-05-21T02:21:38.300Z,15.97
2019-05-21T02:24:07.631Z,18.30
2019-05-21T02:26:36.956Z,16.57
2019-05-21T02:29:06.483Z,17.33
2019-05-21T02:31:35.780Z,16.77
2019-05-21T02:34:05.197Z,13.73
2019-05-21T02:36:34.698Z,11.47
2019-05-21T02:39:05.414Z,12.47
2019-05-21T02:41:34.956Z,10.23
2019-05-21T02:44:04.443Z,12.80
2019-05-21T02:46:33.701Z,10.07
2019-05-21T02:49:02.980Z,10.67
2019-05-21T02:51:32.440Z,10.67
2019-05-21T02:54:01.729Z,11.93
2019-05-21T02:56:31.040Z,12.47
2019-05-21T02:59:00.535Z,11.97
2019-05-21T03:01:51.546Z,16.33
2019-05-21T03:04:21.048Z,13.17
2019-05-21T03:06:51.923Z,14.70
2019-05-21T03:09:21.281Z,13.27
2019-05-21T03:11:50.897Z,14.00
2019-05-21T03:14:20.157Z,13.50
2019-05-21T03:16:49.401Z,13.10
2019-05-21T03:19:18.902Z,14.77
2019-05-21T03:21:48.153Z,13.90
2019-05-21T03:24:17.949Z,13.23
2019-05-21T03:26:47.717Z,14.37
2019-05-21T03:29:17.054Z,13.73
2019-05-21T03:31:46.384Z,14.47
2019-05-21T03:34:15.932Z,19.83
2019-05-21T03:36:45.258Z,15.67
2019-05-21T03:39:19.104Z,18.30
2019-05-21T03:41:45.759Z,18.53
2019-05-21T03:44:15.083Z,22.73
2019-05-21T03:46:44.629Z,27.97
2019-05-21T03:49:14.179Z,28.27
2019-05-21T03:51:43.584Z,24.10
2019-05-21T03:54:12.899Z,22.97
2019-05-21T03:56:42.501Z,27.67
2019-05-21T03:59:11.787Z,23.13
2019-05-21T04:01:41.074Z,25.50
2019-05-21T04:04:10.484Z,25.20
2019-05-21T04:06:51.369Z,26.17
2019-05-21T04:09:10.940Z,24.17
2019-05-21T04:11:40.271Z,24.00
2019-05-21T04:14:12.714Z,24.33
2019-05-21T04:17:01.319Z,25.07
2019-05-21T04:19:34.457Z,21.70
2019-05-21T04:22:03.736Z,23.77
2019-05-21T04:24:32.983Z,22.77
2019-05-21T04:27:02.558Z,23.13
2019-05-21T04:29:31.789Z,26.10
2019-05-21T04:32:01.129Z,24.10
2019-05-21T04:34:30.672Z,22.47
2019-05-21T04:37:10.029Z,19.53
2019-05-21T04:39:31.123Z,25.60
2019-05-21T04:42:00.420Z,23.73
2019-05-21T04:44:29.711Z,22.43
2019-05-21T04:46:59.254Z,22.37
2019-05-21T04:49:28.610Z,26.90
2019-05-21T04:51:57.868Z,21.37
2019-05-21T04:54:27.357Z,21.27
2019-05-21T04:56:56.646Z,23.80
2019-05-21T04:59:25.938Z,21.83
2019-05-21T05:01:55.426Z,23.30
2019-05-21T05:04:24.691Z,22.60
2019-05-21T05:06:53.963Z,27.13
2019-05-21T05:09:23.447Z,26.47
2019-05-21T05:11:52.742Z,20.77
2019-05-21T05:14:22.071Z,23.33
2019-05-21T05:16:51.535Z,20.67
2019-05-21T05:19:20.878Z,20.73
2019-05-21T05:21:50.207Z,20.23
2019-05-21T05:24:19.756Z,19.17
2019-05-21T05:26:49.025Z,22.37
2019-05-21T05:29:18.286Z,22.70
2019-05-21T05:31:47.792Z,19.90
2019-05-21T05:34:17.116Z,17.77
2019-05-21T05:36:46.582Z,17.83
2019-05-21T05:39:16.118Z,17.33
2019-05-21T05:41:45.439Z,19.47
2019-05-21T05:44:14.687Z,17.80
2019-05-21T05:46:44.117Z,21.90
2019-05-21T05:49:18.877Z,19.43
2019-05-21T05:51:48.566Z,19.13
2019-05-21T05:54:17.835Z,22.67
2019-05-21T05:56:47.151Z,20.20
2019-05-21T05:59:16.603Z,20.27
2019-05-21T06:01:45.915Z,23.17
2019-05-21T06:04:15.214Z,21.57
2019-05-21T06:06:44.645Z,21.30
2019-05-21T06:09:13.906Z,20.73
2019-05-21T06:11:43.190Z,22.70
2019-05-21T06:14:12.746Z,20.80
2019-05-21T06:16:42.016Z,18.83
2019-05-21T06:19:11.380Z,19.07
2019-05-21T06:21:40.683Z,21.27
2019-05-21T06:24:13.378Z,20.23
2019-05-21T06:26:40.735Z,20.60
2019-05-21T06:29:09.835Z,15.63
2019-05-21T06:31:38.893Z,17.73
2019-05-21T06:34:07.959Z,19.97
2019-05-21T06:36:37.190Z,21.13
2019-05-21T06:39:07.210Z,23.23
2019-05-21T06:41:36.353Z,17.60
2019-05-21T06:44:05.818Z,18.73
2019-05-21T06:46:34.951Z,19.10
2019-05-21T06:49:04.016Z,19.97
2019-05-21T06:51:33.145Z,22.20
2019-05-21T06:54:02.439Z,20.57
2019-05-21T06:56:31.844Z,18.23
2019-05-21T06:59:02.190Z,18.70
2019-05-21T07:01:31.399Z,22.87
2019-05-21T07:04:00.568Z,22.43
2019-05-21T07:06:29.963Z,18.50
2019-05-21T07:08:59.122Z,18.83
2019-05-21T07:11:28.184Z,22.63
2019-05-21T07:13:57.378Z,17.33
2019-05-21T07:16:26.504Z,15.17
2019-05-21T07:18:55.576Z,19.93
2019-05-21T07:21:24.662Z,19.87
2019-05-21T07:23:53.763Z,21.00
2019-05-21T07:26:22.848Z,21.50
2019-05-21T07:28:53.099Z,18.40
2019-05-21T07:31:22.955Z,11.33
2019-05-21T07:33:52.024Z,11.57
2019-05-21T07:36:21.246Z,12.93
2019-05-21T07:38:53.850Z,17.30
2019-05-21T07:41:21.123Z,17.43
2019-05-21T07:43:50.435Z,14.50
2019-05-21T07:46:19.520Z,13.00
2019-05-21T07:48:48.611Z,12.57
2019-05-21T07:51:17.923Z,14.13
2019-05-21T07:53:47.006Z,11.43
2019-05-21T07:56:16.066Z,10.47
2019-05-21T07:58:45.384Z,11.17
2019-05-21T08:01:14.439Z,12.33
2019-05-21T08:03:43.515Z,11.63
2019-05-21T08:06:14.977Z,15.20
2019-05-21T08:08:43.798Z,11.30
2019-05-21T08:11:12.947Z,14.47
2019-05-21T08:13:42.147Z,11.33
2019-05-21T08:16:11.200Z,10.70
2019-05-21T08:18:40.270Z,8.87
2019-05-21T08:21:09.464Z,12.47
2019-05-21T08:23:38.548Z,10.70
2019-05-21T08:26:07.743Z,11.40
2019-05-21T08:28:37.068Z,13.63
2019-05-21T08:31:06.359Z,8.37
2019-05-21T08:33:35.459Z,12.90
2019-05-21T08:36:05.634Z,8.77
2019-05-21T08:38:35.023Z,10.30
2019-05-21T08:41:04.155Z,8.13
2019-05-21T08:43:33.339Z,10.43
2019-05-21T08:46:02.493Z,7.63
2019-05-21T08:48:31.645Z,7.63
2019-05-21T08:51:00.779Z,8.37
2019-05-21T08:53:30.119Z,8.67
2019-05-21T08:55:59.187Z,8.00
2019-05-21T08:58:28.640Z,6.80
2019-05-21T09:00:57.772Z,12.60
2019-05-21T09:03:29.753Z,10.43
2019-05-21T09:05:59.419Z,9.40
2019-05-21T09:08:28.507Z,8.67
2019-05-21T09:10:57.523Z,9.90
2019-05-21T09:13:26.736Z,9.57
2019-05-21T09:15:55.820Z,10.73
2019-05-21T09:18:24.874Z,11.27
2019-05-21T09:20:53.998Z,7.97
2019-05-21T09:23:23.094Z,8.50
2019-05-21T09:25:52.203Z,9.10
2019-05-21T09:28:21.334Z,8.13
2019-05-21T09:30:50.389Z,8.73
2019-05-21T09:33:19.492Z,6.83
2019-05-21T09:35:49.910Z,8.57
2019-05-21T09:38:18.896Z,8.03
2019-05-21T09:40:48.105Z,7.83
2019-05-21T09:43:17.455Z,7.40
2019-05-21T09:45:46.591Z,5.97
2019-05-21T09:48:15.661Z,8.83
2019-05-21T09:50:45.207Z,9.57
2019-05-21T09:53:16.465Z,7.20
2019-05-21T09:55:45.625Z,7.77
2019-05-21T09:58:33.900Z,5.97
2019-05-21T10:01:30.611Z,7.87
2019-05-21T10:04:00.352Z,8.70
2019-05-21T10:06:29.540Z,6.73
2019-05-21T10:08:58.615Z,6.37
2019-05-21T10:11:27.749Z,6.37
2019-05-21T10:13:57.009Z,7.97
2019-05-21T10:16:26.051Z,6.77
2019-05-21T10:18:55.199Z,6.23
2019-05-21T10:21:24.275Z,8.23
2019-05-21T10:23:53.331Z,7.83
2019-05-21T10:26:22.623Z,7.90
2019-05-21T10:28:51.742Z,8.80
2019-05-21T10:31:20.827Z,9.57
2019-05-21T10:33:50.317Z,7.97
2019-05-21T10:36:19.488Z,8.00
2019-05-21T10:38:48.503Z,10.70
2019-05-21T10:41:17.905Z,6.77
2019-05-21T10:43:46.984Z,7.27
2019-05-21T10:46:16.173Z,8.97
2019-05-21T10:48:45.388Z,7.87
2019-05-21T10:51:14.463Z,8.13
2019-05-21T10:53:43.555Z,8.40
2019-05-21T10:56:12.794Z,13.10
2019-05-21T10:58:42.015Z,8.20
2019-05-21T11:01:20.844Z,5.17
2019-05-21T11:04:14.975Z,7.83
2019-05-21T11:06:50.899Z,8.07
2019-05-21T11:09:20.694Z,8.27
2019-05-21T11:11:50.141Z,9.00
2019-05-21T11:14:19.470Z,9.33
2019-05-21T11:16:51.487Z,10.20
2019-05-21T11:19:20.715Z,9.03
2019-05-21T11:21:49.792Z,7.90
2019-05-21T11:24:18.872Z,71.53
2019-05-21T11:26:48.076Z,7.67
2019-05-21T11:29:17.183Z,11.43
2019-05-21T11:31:56.452Z,11.97
2019-05-21T11:34:17.308Z,7.47
2019-05-21T11:36:46.362Z,6.27
2019-05-21T11:39:15.674Z,5.20
2019-05-21T11:41:44.731Z,6.43
2019-05-21T11:44:13.821Z,7.63
2019-05-21T11:46:42.994Z,9.40
2019-05-21T11:49:12.327Z,8.13
2019-05-21T11:51:41.398Z,6.07
2019-05-21T11:54:10.331Z,10.07
2019-05-21T11:56:39.671Z,6.83
2019-05-21T11:59:08.726Z,5.80
2019-05-21T12:01:37.897Z,8.03
2019-05-21T12:04:07.104Z,7.53
2019-05-21T12:06:36.271Z,8.83
2019-05-21T12:09:07.604Z,8.70
2019-05-21T12:11:37.061Z,15.27
2019-05-21T12:14:06.151Z,7.80
2019-05-21T12:16:36.417Z,8.40
2019-05-21T12:19:08.223Z,8.67
2019-05-21T12:21:36.943Z,10.40
2019-05-21T12:24:06.052Z,8.77
2019-05-21T12:26:35.409Z,11.43
2019-05-21T12:29:04.467Z,8.57
2019-05-21T12:31:33.557Z,7.63
2019-05-21T12:34:02.800Z,9.37
2019-05-21T12:36:31.975Z,11.63
2019-05-21T12:39:13.605Z,8.77
2019-05-21T12:41:31.957Z,10.87
2019-05-21T12:44:01.115Z,8.53
2019-05-21T12:46:30.211Z,9.60
2019-05-21T12:48:59.434Z,9.57
2019-05-21T12:51:28.668Z,12.57
2019-05-21T12:53:57.749Z,9.50
2019-05-21T12:56:27.117Z,8.83
2019-05-21T12:58:56.171Z,9.67
2019-05-21T13:01:25.261Z,11.43
2019-05-21T13:03:55.521Z,8.47
2019-05-21T13:06:24.913Z,12.83
2019-05-21T13:08:54.090Z,11.60
2019-05-21T13:11:23.376Z,9.53
2019-05-21T13:13:52.464Z,10.80
2019-05-21T13:16:21.588Z,12.53
2019-05-21T13:18:50.820Z,7.63
2019-05-21T13:21:19.900Z,5.63
2019-05-21T13:23:48.964Z,6.83
2019-05-21T13:26:18.430Z,10.23
2019-05-21T13:28:47.734Z,9.37
2019-05-21T13:31:16.832Z,9.10
2019-05-21T13:33:46.112Z,14.70
2019-05-21T13:36:15.899Z,13.57
2019-05-21T13:38:45.079Z,14.07
2019-05-21T13:41:14.340Z,11.37
2019-05-21T13:43:43.488Z,12.23
2019-05-21T13:46:12.596Z,12.30
2019-05-21T13:48:41.806Z,13.60
2019-05-21T13:51:10.937Z,14.47
2019-05-21T13:53:40.033Z,11.57
2019-05-21T13:56:09.315Z,10.50
2019-05-21T13:58:38.494Z,11.80
2019-05-21T14:01:08.038Z,11.90
2019-05-21T14:03:37.502Z,10.23
2019-05-21T14:06:07.252Z,10.90
2019-05-21T14:08:36.556Z,10.47
2019-05-21T14:11:06.548Z,10.27
2019-05-21T14:13:35.680Z,13.80
2019-05-21T14:16:04.771Z,13.37
2019-05-21T14:18:34.115Z,10.93
2019-05-21T14:21:03.691Z,10.57
2019-05-21T14:23:32.790Z,11.07
2019-05-21T14:26:02.227Z,12.67
2019-05-21T14:28:34.441Z,10.93
2019-05-21T14:31:02.448Z,10.33
2019-05-21T14:33:31.793Z,11.77
2019-05-21T14:36:04.290Z,12.97
2019-05-21T14:38:33.595Z,11.03
2019-05-21T14:41:02.771Z,12.67
2019-05-21T14:43:31.947Z,11.80
2019-05-21T14:46:01.278Z,12.73
2019-05-21T14:48:30.434Z,11.17
2019-05-21T14:50:59.618Z,13.07
2019-05-21T14:53:28.998Z,12.33
2019-05-21T14:55:58.137Z,12.70
2019-05-21T14:58:27.326Z,12.43
2019-05-21T15:00:56.658Z,11.73
2019-05-21T15:03:25.862Z,11.33
2019-05-21T15:05:55.015Z,10.87
2019-05-21T15:08:24.196Z,13.60
2019-05-21T15:10:53.312Z,15.17
2019-05-21T15:13:22.474Z,13.40
2019-05-21T15:15:51.744Z,10.43
2019-05-21T15:18:22.250Z,14.97
2019-05-21T15:20:57.031Z,10.73
2019-05-21T15:23:46.913Z,11.03
2019-05-21T15:26:16.480Z,13.47
2019-05-21T15:28:45.651Z,15.67
2019-05-21T15:31:14.749Z,15.93
2019-05-21T15:33:43.994Z,12.23
2019-05-21T15:36:14.036Z,11.10
2019-05-21T15:38:50.712Z,16.93
2019-05-21T15:41:18.784Z,16.43
2019-05-21T15:43:49.771Z,14.97
2019-05-21T15:46:18.896Z,15.60
2019-05-21T15:48:47.961Z,14.83
2019-05-21T15:51:17.146Z,10.77
2019-05-21T15:53:46.358Z,12.37
2019-05-21T15:56:15.632Z,10.33
2019-05-21T15:58:44.814Z,13.60
2019-05-21T16:01:13.931Z,12.67
2019-05-21T16:03:43.001Z,10.60
2019-05-21T16:06:12.434Z,11.37
2019-05-21T16:08:42.009Z,13.40
2019-05-21T16:11:27.485Z,14.27
2019-05-21T16:13:41.931Z,14.20
2019-05-21T16:16:14.025Z,11.70
2019-05-21T16:18:45.360Z,9.63
2019-05-21T16:21:14.525Z,9.33
2019-05-21T16:23:43.776Z,10.60
2019-05-21T16:26:12.859Z,16.50
2019-05-21T16:28:41.989Z,10.00
2019-05-21T16:31:12.869Z,15.57
2019-05-21T16:33:42.010Z,14.53
2019-05-21T16:36:11.842Z,11.23
2019-05-21T16:38:40.957Z,12.73
2019-05-21T16:41:10.040Z,14.30
2019-05-21T16:43:39.042Z,12.83
2019-05-21T16:46:10.262Z,10.37
2019-05-21T16:48:38.849Z,11.93
2019-05-21T16:51:08.108Z,9.93
2019-05-21T16:53:37.345Z,12.50
2019-05-21T16:56:06.530Z,14.10
2019-05-21T16:58:35.634Z,11.93
2019-05-21T17:01:06.682Z,11.70
2019-05-21T17:03:36.577Z,12.73
2019-05-21T17:06:07.863Z,12.80
2019-05-21T17:08:38.147Z,14.43
2019-05-21T17:11:07.234Z,12.97
2019-05-21T17:13:36.658Z,11.17
2019-05-21T17:16:07.092Z,9.33
2019-05-21T17:18:36.304Z,8.70
2019-05-21T17:21:05.398Z,10.60
2019-05-21T17:23:34.519Z,11.17
2019-05-21T17:26:03.673Z,10.00
2019-05-21T17:28:32.887Z,10.37
2019-05-21T17:31:02.038Z,11.50
2019-05-21T17:33:32.229Z,8.67
2019-05-21T17:36:02.096Z,10.50
2019-05-21T17:38:32.364Z,12.23
2019-05-21T17:41:02.046Z,11.93
2019-05-21T17:43:31.190Z,16.33
2019-05-21T17:46:00.344Z,12.47
2019-05-21T17:48:30.405Z,13.43
2019-05-21T17:50:59.587Z,12.10
2019-05-21T17:53:28.758Z,6.40
2019-05-21T17:55:58.124Z,7.63
2019-05-21T17:58:27.325Z,6.53
2019-05-21T18:01:00.601Z,5.93
2019-05-21T18:03:31.404Z,8.37
2019-05-21T18:06:00.870Z,10.23
2019-05-21T18:08:30.679Z,8.77
2019-05-21T18:11:00.621Z,8.80
2019-05-21T18:13:30.958Z,7.27
2019-05-21T18:16:00.529Z,9.37
2019-05-21T18:18:30.241Z,7.30
2019-05-21T18:21:00.079Z,9.47
2019-05-21T18:23:29.349Z,12.10
2019-05-21T18:25:58.771Z,8.90
2019-05-21T18:28:34.921Z,10.27
2019-05-21T18:31:04.676Z,8.27
2019-05-21T18:33:33.983Z,8.23
2019-05-21T18:36:03.433Z,11.07
2019-05-21T18:38:32.968Z,9.90
2019-05-21T18:41:03.382Z,8.47
2019-05-21T18:43:32.675Z,11.30
2019-05-21T18:46:01.920Z,11.00
2019-05-21T18:48:31.125Z,10.77
2019-05-21T18:51:00.504Z,14.00
2019-05-21T18:53:29.593Z,12.33
2019-05-21T18:55:58.688Z,13.70
2019-05-21T18:58:28.511Z,13.50
2019-05-21T19:00:57.728Z,14.70
2019-05-21T19:03:26.858Z,15.63
2019-05-21T19:05:56.259Z,13.03
2019-05-21T19:08:25.509Z,13.63
2019-05-21T19:10:54.776Z,12.00
2019-05-21T19:13:24.169Z,17.57
2019-05-21T19:15:53.264Z,17.47
2019-05-21T19:18:22.470Z,15.13
2019-05-21T19:20:51.738Z,16.37
2019-05-21T19:23:20.863Z,18.13
2019-05-21T19:25:49.979Z,16.57
2019-05-21T19:28:19.454Z,17.00
2019-05-21T19:30:48.558Z,12.50
2019-05-21T19:33:17.780Z,14.70
2019-05-21T19:35:47.138Z,16.57
2019-05-21T19:38:16.914Z,15.67
2019-05-21T19:40:45.915Z,17.77
2019-05-21T19:43:15.240Z,16.13
2019-05-21T19:45:44.330Z,16.83
2019-05-21T19:48:13.530Z,19.00
2019-05-21T19:50:42.843Z,15.47
2019-05-21T19:53:12.183Z,14.57
2019-05-21T19:55:41.573Z,15.30
2019-05-21T19:58:10.956Z,14.03
2019-05-21T20:00:46.375Z,17.80
2019-05-21T20:03:16.221Z,14.70
2019-05-21T20:05:46.181Z,15.53
2019-05-21T20:08:15.665Z,16.67
2019-05-21T20:10:44.833Z,15.83
2019-05-21T20:13:14.053Z,15.37
2019-05-21T20:15:43.287Z,12.67
2019-05-21T20:18:13.953Z,17.97
2019-05-21T20:20:44.020Z,15.07
2019-05-21T20:23:13.704Z,16.50
2019-05-21T20:25:55.907Z,13.37
2019-05-21T20:28:14.081Z,16.43
2019-05-21T20:30:44.788Z,19.87
2019-05-21T20:33:14.877Z,17.60
2019-05-21T20:35:45.525Z,15.50
2019-05-21T20:38:14.643Z,18.23
2019-05-21T20:40:43.900Z,21.30
2019-05-21T20:43:13.902Z,15.90
2019-05-21T20:45:45.876Z,14.60
2019-05-21T20:48:16.245Z,15.37
2019-05-21T20:50:45.982Z,13.77
2019-05-21T20:53:15.406Z,17.40
2019-05-21T20:55:44.595Z,17.47
2019-05-21T20:58:13.685Z,19.33
2019-05-21T21:00:48.646Z,17.37
2019-05-21T21:03:17.946Z,16.80
2019-05-21T21:05:47.406Z,15.00
2019-05-21T21:08:17.612Z,13.67
2019-05-21T21:10:46.732Z,17.80
2019-05-21T21:13:16.824Z,17.83
2019-05-21T21:15:47.119Z,14.40
2019-05-21T21:18:17.864Z,14.63
2019-05-21T21:20:46.996Z,15.67
2019-05-21T21:23:18.146Z,12.80
2019-05-21T21:25:47.384Z,15.13
2019-05-21T21:28:16.718Z,15.17
2019-05-21T21:30:46.672Z,12.53
2019-05-21T21:33:17.424Z,13.87
2019-05-21T21:35:46.662Z,17.00
2019-05-21T21:38:17.681Z,15.13
2019-05-21T21:40:46.836Z,12.87
2019-05-21T21:43:16.120Z,19.23
2019-05-21T21:45:45.568Z,12.23
2019-05-21T21:48:16.196Z,15.00
2019-05-21T21:50:45.694Z,14.80
2019-05-21T21:53:15.845Z,12.83
2019-05-21T21:55:44.977Z,14.80
2019-05-21T21:58:14.091Z,14.63
2019-05-21T22:01:19.983Z,14.33
2019-05-21T22:03:49.988Z,13.10
2019-05-21T22:06:21.833Z,13.23
2019-05-21T22:08:51.568Z,13.00
2019-05-21T22:11:21.606Z,15.37
2019-05-21T22:13:51.392Z,16.67
2019-05-21T22:16:21.046Z,14.87
2019-05-21T22:18:50.663Z,13.20
2019-05-21T22:21:20.435Z,14.80
2019-05-21T22:23:50.436Z,11.20
2019-05-21T22:26:20.556Z,13.33
2019-05-21T22:28:50.064Z,11.00
2019-05-21T22:31:19.213Z,11.70
2019-05-21T22:33:50.741Z,13.57
2019-05-21T22:36:22.837Z,14.20
2019-05-21T22:38:51.978Z,14.67
2019-05-21T22:41:21.244Z,11.43
2019-05-21T22:43:50.758Z,12.40
2019-05-21T22:46:20.515Z,9.73
2019-05-21T22:48:49.586Z,11.10
2019-05-21T22:51:18.883Z,12.33
2019-05-21T22:53:47.965Z,13.70
2019-05-21T22:56:17.160Z,11.20
2019-05-21T22:58:46.401Z,10.33
2019-05-21T23:01:18.013Z,12.20
2019-05-21T23:03:47.438Z,10.63
2019-05-21T23:06:18.446Z,11.07
2019-05-21T23:08:47.681Z,9.80
2019-05-21T23:11:17.209Z,11.73
2019-05-21T23:13:46.321Z,11.40
2019-05-21T23:16:15.743Z,11.23
2019-05-21T23:18:45.397Z,10.83
2019-05-21T23:21:17.584Z,11.50
2019-05-21T23:23:47.578Z,14.03
2019-05-21T23:26:17.924Z,13.00
2019-05-21T23:28:48.023Z,10.93
2019-05-21T23:31:17.792Z,11.13
2019-05-21T23:33:49.124Z,13.80
2019-05-21T23:36:20.183Z,12.30
2019-05-21T23:38:50.784Z,12.73
2019-05-21T23:41:21.920Z,12.97
2019-05-21T23:43:53.026Z,11.43
2019-05-21T23:46:22.867Z,10.43
2019-05-21T23:48:52.496Z,12.97
2019-05-21T23:51:21.753Z,10.40
2019-05-21T23:53:50.989Z,13.03
2019-05-21T23:56:20.407Z,15.67
2019-05-21T23:58:49.661Z,11.93
